createdAt,value
2022-11-24T00:00:32.816Z,99259.78
2022-11-24T00:03:35.949Z,99277.09
2022-11-24T00:06:38.299Z,99293.78
2022-11-24T00:09:40.819Z,99277.09
2022-11-24T00:12:43.166Z,99287.00
2022-11-24T00:15:45.703Z,99290.22
2022-11-24T00:18:50.009Z,99291.31
2022-11-24T00:21:52.565Z,99301.16
2022-11-24T00:24:54.763Z,99278.06
2022-11-24T00:27:57.258Z,99268.44
2022-11-24T00:31:00.256Z,99305.16
2022-11-24T00:34:10.186Z,99303.06
2022-11-24T00:37:12.451Z,99309.00
2022-11-24T00:40:14.936Z,99309.81
2022-11-24T00:43:17.909Z,99313.19
2022-11-24T00:46:21.463Z,99315.94
2022-11-24T00:49:25.601Z,99316.59
2022-11-24T00:52:28.119Z,99326.25
2022-11-24T00:55:30.384Z,99327.53
2022-11-24T00:58:33.987Z,99328.78
2022-11-24T01:01:36.324Z,99331.22
2022-11-24T01:04:38.885Z,99333.16
2022-11-24T01:07:41.174Z,99333.94
2022-11-24T01:10:44.118Z,99330.09
2022-11-24T01:13:48.740Z,99306.03
2022-11-24T01:16:51.823Z,99333.94
2022-11-24T01:19:54.094Z,99335.88
2022-11-24T01:22:56.621Z,99337.16
2022-11-24T01:25:58.867Z,99321.94
2022-11-24T01:29:01.431Z,99322.25
2022-11-24T01:32:03.939Z,99343.09
2022-11-24T01:35:07.213Z,99315.84
2022-11-24T01:38:09.407Z,99317.44
2022-11-24T01:41:13.112Z,99346.00
2022-11-24T01:44:27.574Z,99351.00
2022-11-24T01:47:43.565Z,99326.28
2022-11-24T01:50:49.272Z,99347.81
2022-11-24T01:53:58.185Z,99348.94
2022-11-24T01:57:22.244Z,99350.88
2022-11-24T02:00:24.827Z,99345.28
2022-11-24T02:03:33.995Z,99361.00
2022-11-24T02:06:38.082Z,99341.31
2022-11-24T02:09:50.117Z,99354.59
2022-11-24T02:12:56.039Z,99348.00
2022-11-24T02:15:58.539Z,99330.84
2022-11-24T02:19:03.455Z,99339.50
2022-11-24T02:22:12.163Z,99355.06
2022-11-24T02:25:33.843Z,99356.22
2022-11-24T02:28:36.399Z,99336.31
2022-11-24T02:31:47.610Z,99353.28
2022-11-24T02:34:49.936Z,99353.28
2022-11-24T02:37:52.420Z,99336.47
2022-11-24T02:40:54.696Z,99347.66
2022-11-24T02:44:01.610Z,99345.28
2022-11-24T02:47:07.060Z,99337.22
2022-11-24T02:50:10.240Z,99336.47
2022-11-24T02:53:12.486Z,99337.22
2022-11-24T02:56:15.046Z,99351.84
2022-11-24T02:59:17.266Z,99341.12
2022-11-24T03:02:19.813Z,99364.22
2022-11-24T03:05:22.169Z,99361.94
2022-11-24T03:08:24.657Z,99357.59
2022-11-24T03:11:26.897Z,99337.72
2022-11-24T03:14:29.325Z,99361.00
2022-11-24T03:17:31.554Z,99365.81
2022-11-24T03:20:34.147Z,99346.59
2022-11-24T03:23:36.421Z,99368.72
2022-11-24T03:26:38.974Z,99380.47
2022-11-24T03:29:41.207Z,99357.38
2022-11-24T03:32:43.779Z,99372.59
2022-11-24T03:35:46.068Z,99359.81
2022-11-24T03:38:48.606Z,99387.25
2022-11-24T03:41:51.587Z,99392.59
2022-11-24T03:44:54.127Z,99379.41
2022-11-24T03:47:57.076Z,99377.50
2022-11-24T03:51:01.676Z,99367.41
2022-11-24T03:54:04.062Z,99388.41
2022-11-24T03:57:06.560Z,99385.88
2022-11-24T04:00:10.090Z,99391.47
2022-11-24T04:03:12.705Z,99394.22
2022-11-24T04:06:17.373Z,99376.09
2022-11-24T04:09:19.884Z,99402.59
2022-11-24T04:12:40.574Z,99400.06
2022-11-24T04:15:43.923Z,99384.66
2022-11-24T04:18:46.214Z,99404.56
2022-11-24T04:21:48.775Z,99385.50
2022-11-24T04:24:50.996Z,99408.25
2022-11-24T04:27:55.162Z,99400.09
2022-11-24T04:31:02.482Z,99410.19
2022-11-24T04:34:05.054Z,99415.34
2022-11-24T04:37:07.294Z,99429.66
2022-11-24T04:40:11.635Z,99402.53
2022-11-24T04:43:13.783Z,99423.56
2022-11-24T04:46:17.116Z,99433.66
2022-11-24T04:49:19.774Z,99435.75
2022-11-24T04:52:24.078Z,99438.34
2022-11-24T04:55:26.139Z,99427.13
2022-11-24T04:58:28.621Z,99443.81
2022-11-24T05:01:30.916Z,99441.41
2022-11-24T05:04:33.970Z,99438.00
2022-11-24T05:07:36.900Z,99457.47
2022-11-24T05:10:40.171Z,99471.72
2022-11-24T05:13:42.510Z,99471.56
2022-11-24T05:16:45.032Z,99479.09
2022-11-24T05:19:47.243Z,99458.22
2022-11-24T05:22:49.822Z,99483.44
2022-11-24T05:25:52.464Z,99487.28
2022-11-24T05:28:55.018Z,99480.56
2022-11-24T05:31:57.258Z,99468.16
2022-11-24T05:35:02.081Z,99497.72
2022-11-24T05:38:04.795Z,99493.91
2022-11-24T05:41:07.281Z,99484.25
2022-11-24T05:44:09.588Z,99490.37
2022-11-24T05:47:12.078Z,99501.28
2022-11-24T05:50:16.227Z,99512.97
2022-11-24T05:53:18.707Z,99499.03
2022-11-24T05:56:21.326Z,99512.25
2022-11-24T05:59:23.829Z,99502.72
2022-11-24T06:02:26.458Z,99509.53
2022-11-24T06:05:29.926Z,99520.41
2022-11-24T06:08:32.638Z,99511.59
2022-11-24T06:11:35.159Z,99501.97
2022-11-24T06:14:37.497Z,99518.50
2022-11-24T06:17:41.132Z,99517.56
2022-11-24T06:20:53.162Z,99519.00
2022-11-24T06:24:05.978Z,99535.06
2022-11-24T06:27:08.454Z,99537.97
2022-11-24T06:30:12.295Z,99548.56
2022-11-24T06:33:14.546Z,99534.72
2022-11-24T06:36:17.038Z,99540.53
2022-11-24T06:39:19.284Z,99549.81
2022-11-24T06:42:21.859Z,99554.19
2022-11-24T06:45:24.960Z,99544.34
2022-11-24T06:48:28.395Z,99570.06
2022-11-24T06:51:30.699Z,99566.22
2022-11-24T06:54:33.424Z,99543.09
2022-11-24T06:57:36.255Z,99570.41
2022-11-24T07:00:38.934Z,99581.34
2022-11-24T07:03:41.220Z,99567.50
2022-11-24T07:06:44.494Z,99573.47
2022-11-24T07:09:46.758Z,99597.09
2022-11-24T07:12:49.306Z,99595.47
2022-11-24T07:15:51.534Z,99594.84
2022-11-24T07:18:54.749Z,99587.44
2022-11-24T07:21:57.133Z,99609.31
2022-11-24T07:24:59.886Z,99613.63
2022-11-24T07:28:02.252Z,99613.97
2022-11-24T07:31:13.466Z,99582.47
2022-11-24T07:34:15.771Z,99627.97
2022-11-24T07:37:18.412Z,99616.72
2022-11-24T07:40:20.668Z,99636.81
2022-11-24T07:43:23.210Z,99643.87
2022-11-24T07:46:25.553Z,99616.06
2022-11-24T07:49:28.439Z,99644.38
2022-11-24T07:52:30.669Z,99642.75
2022-11-24T07:55:33.181Z,99637.13
2022-11-24T07:58:37.266Z,99640.66
2022-11-24T08:01:43.306Z,99655.31
2022-11-24T08:04:45.901Z,99632.63
2022-11-24T08:07:48.232Z,99645.94
2022-11-24T08:10:51.057Z,99632.97
2022-11-24T08:13:53.377Z,99651.41
2022-11-24T08:16:55.915Z,99653.03
2022-11-24T08:19:58.241Z,99636.16
2022-11-24T08:23:01.173Z,99657.37
2022-11-24T08:26:05.674Z,99641.13
2022-11-24T08:29:08.262Z,99643.72
2022-11-24T08:32:16.143Z,99636.94
2022-11-24T08:35:21.442Z,99672.00
2022-11-24T08:38:24.076Z,99674.41
2022-11-24T08:41:27.559Z,99669.75
2022-11-24T08:44:29.998Z,99667.00
2022-11-24T08:47:32.535Z,99654.97
2022-11-24T08:50:35.695Z,99681.31
2022-11-24T08:53:39.460Z,99686.00
2022-11-24T08:56:42.389Z,99690.69
2022-11-24T08:59:46.208Z,99691.62
2022-11-24T09:02:56.729Z,99696.28
2022-11-24T09:05:59.293Z,99692.59
2022-11-24T09:09:01.602Z,99693.41
2022-11-24T09:12:05.233Z,99697.56
2022-11-24T09:15:10.143Z,99697.25
2022-11-24T09:18:12.939Z,99681.16
2022-11-24T09:21:19.088Z,99666.97
2022-11-24T09:24:21.722Z,99681.59
2022-11-24T09:27:24.091Z,99701.19
2022-11-24T09:30:27.200Z,99706.84
2022-11-24T09:33:30.454Z,99700.06
2022-11-24T09:36:33.317Z,99698.75
2022-11-24T09:39:35.798Z,99702.13
2022-11-24T09:42:41.333Z,99694.19
2022-11-24T09:46:11.198Z,99709.31
2022-11-24T09:49:24.203Z,99692.44
2022-11-24T09:52:52.315Z,99690.53
2022-11-24T09:56:11.917Z,99677.34
2022-11-24T09:59:20.970Z,99704.81
2022-11-24T10:02:23.480Z,99688.75
2022-11-24T10:05:29.211Z,99710.97
2022-11-24T10:08:51.641Z,99686.84
2022-11-24T10:12:18.386Z,99706.97
2022-11-24T10:15:35.246Z,99705.56
2022-11-24T10:18:45.120Z,99712.84
2022-11-24T10:22:07.962Z,99707.84
2022-11-24T10:25:16.459Z,99720.94
2022-11-24T10:28:18.848Z,99712.41
2022-11-24T10:31:21.372Z,99708.84
2022-11-24T10:34:34.561Z,99719.47
2022-11-24T10:37:44.661Z,99719.81
2022-11-24T10:41:13.290Z,99708.19
2022-11-24T10:44:16.260Z,99713.53
2022-11-24T10:47:22.668Z,99701.47
2022-11-24T10:50:32.708Z,99717.53
2022-11-24T10:53:38.798Z,99718.97
2022-11-24T10:56:42.893Z,99729.72
2022-11-24T10:59:45.244Z,99718.78
2022-11-24T11:02:50.107Z,99711.03
2022-11-24T11:06:01.221Z,99741.91
2022-11-24T11:09:06.962Z,99750.59
2022-11-24T11:12:42.012Z,99755.03
2022-11-24T11:15:35.631Z,99722.53
2022-11-24T11:18:38.017Z,99747.28
2022-11-24T11:21:40.831Z,99759.34
2022-11-24T11:24:45.094Z,99761.91
2022-11-24T11:27:48.352Z,99748.72
2022-11-24T11:31:19.678Z,99742.09
2022-11-24T11:34:29.839Z,99761.09
2022-11-24T11:43:41.319Z,99781.44
2022-11-24T11:46:45.054Z,99772.03
2022-11-24T11:49:49.461Z,99773.00
2022-11-24T11:53:13.855Z,99779.69
2022-11-24T11:56:37.550Z,99771.72
2022-11-24T11:59:59.113Z,99764.91
2022-11-24T12:03:01.486Z,99768.59
2022-11-24T12:06:39.359Z,99752.59
2022-11-24T12:09:56.321Z,99766.63
2022-11-24T12:13:14.117Z,99765.09
2022-11-24T12:16:30.927Z,99775.06
2022-11-24T12:19:39.709Z,99762.28
2022-11-24T12:23:30.297Z,99776.19
2022-11-24T12:26:38.575Z,99775.56
2022-11-24T12:30:17.047Z,99778.75
2022-11-24T12:33:51.083Z,99771.59
2022-11-24T12:37:34.626Z,99775.53
2022-11-24T12:41:18.243Z,99783.44
2022-11-24T12:44:44.523Z,99782.69
2022-11-24T12:48:26.244Z,99787.41
2022-11-24T12:51:33.364Z,99787.03
2022-11-24T12:54:40.406Z,99792.75
2022-11-24T12:57:47.345Z,99792.25
2022-11-24T13:01:04.772Z,99782.72
2022-11-24T13:04:40.052Z,99800.72
2022-11-24T13:07:42.645Z,99791.84
2022-11-24T13:10:56.354Z,99797.63
2022-11-24T13:14:30.830Z,99773.97
2022-11-24T13:17:52.473Z,99804.28
2022-11-24T13:21:00.287Z,99727.72
2022-11-24T13:24:04.528Z,99803.16
2022-11-24T13:27:16.373Z,99817.13
2022-11-24T13:30:36.642Z,99818.97
2022-11-24T13:33:40.130Z,99816.19
2022-11-24T13:36:53.696Z,99803.19
2022-11-24T13:40:04.820Z,99822.22
2022-11-24T13:43:10.529Z,99823.09
2022-11-24T13:46:13.322Z,99829.59
2022-11-24T13:49:20.766Z,99822.34
2022-11-24T13:52:43.605Z,99796.81
2022-11-24T13:55:59.447Z,99827.56
2022-11-24T13:59:24.472Z,99823.66
2022-11-24T14:02:28.018Z,99823.88
2022-11-24T14:05:39.051Z,99838.09
2022-11-24T14:08:41.356Z,99838.09
2022-11-24T14:11:46.676Z,99820.56
2022-11-24T14:14:57.353Z,99849.22
2022-11-24T14:17:59.904Z,99849.91
2022-11-24T14:21:18.645Z,99833.34
2022-11-24T14:24:27.101Z,99849.91
2022-11-24T14:27:39.205Z,99848.97
2022-11-24T14:30:41.848Z,99849.16
2022-11-24T14:33:44.485Z,99850.94
2022-11-24T14:36:48.580Z,99842.81
2022-11-24T14:39:51.257Z,99860.41
2022-11-24T14:42:53.923Z,99860.78
2022-11-24T14:46:01.218Z,99845.84
2022-11-24T14:49:04.955Z,99871.97
2022-11-24T14:52:16.491Z,99844.44
2022-11-24T14:55:35.439Z,99854.44
2022-11-24T14:58:42.601Z,99880.25
2022-11-24T15:01:45.432Z,99896.66
2022-11-24T15:05:03.255Z,99909.91
2022-11-24T15:08:06.437Z,99880.09
2022-11-24T15:11:09.096Z,99904.09
2022-11-24T15:14:34.628Z,99883.00
2022-11-24T15:17:37.074Z,99912.66
2022-11-24T15:20:44.763Z,99927.00
2022-11-24T15:24:16.376Z,99916.53
2022-11-24T15:27:18.975Z,99907.03
2022-11-24T15:30:21.332Z,99925.87
2022-11-24T15:33:23.939Z,99929.56
2022-11-24T15:36:26.234Z,99931.34
2022-11-24T15:39:28.815Z,99865.31
2022-11-24T15:42:31.102Z,99927.97
2022-11-24T15:45:34.639Z,99945.53
2022-11-24T15:48:37.209Z,99946.00
2022-11-24T15:51:43.595Z,99948.09
2022-11-24T15:54:47.314Z,99934.56
2022-11-24T15:57:51.957Z,99938.09
2022-11-24T16:00:54.288Z,99950.81
2022-11-24T16:03:57.356Z,99950.63
2022-11-24T16:06:59.682Z,99943.69
2022-11-24T16:10:02.293Z,99939.81
2022-11-24T16:13:04.849Z,99961.22
2022-11-24T16:16:09.867Z,99943.00
2022-11-24T16:19:15.809Z,99959.25
2022-11-24T16:22:18.375Z,99952.50
2022-11-24T16:25:20.604Z,99935.38
2022-11-24T16:28:24.813Z,99940.69
2022-11-24T16:31:27.801Z,99948.09
2022-11-24T16:34:30.392Z,99958.22
2022-11-24T16:37:33.135Z,99957.44
2022-11-24T16:40:35.664Z,99958.56
2022-11-24T16:43:38.599Z,99961.94
2022-11-24T16:46:41.112Z,99960.59
2022-11-24T16:49:43.413Z,99971.37
2022-11-24T16:52:45.949Z,99987.31
2022-11-24T16:55:57.826Z,99979.25
2022-11-24T16:59:00.832Z,99975.03
2022-11-24T17:02:03.429Z,99983.72
2022-11-24T17:05:07.654Z,99989.31
2022-11-24T17:08:10.144Z,99983.13
2022-11-24T17:11:23.720Z,99992.53
2022-11-24T17:14:25.998Z,99994.94
2022-11-24T17:17:28.674Z,99992.34
2022-11-24T17:20:33.875Z,99997.81
2022-11-24T17:23:37.346Z,100003.91
2022-11-24T17:26:44.683Z,99992.72
2022-11-24T17:29:50.484Z,99983.16
2022-11-24T17:32:56.833Z,100017.22
2022-11-24T17:36:04.786Z,100018.94
2022-11-24T17:39:07.418Z,100020.56
2022-11-24T17:42:11.810Z,100020.69
2022-11-24T17:45:29.673Z,100023.41
2022-11-24T17:48:36.255Z,100028.69
2022-11-24T17:51:38.647Z,100033.34
2022-11-24T17:54:48.446Z,100010.72
2022-11-24T17:57:51.022Z,99947.03
2022-11-24T18:00:53.833Z,100044.41
2022-11-24T18:03:56.669Z,100058.25
2022-11-24T18:06:59.082Z,99978.31
2022-11-24T18:10:02.158Z,100057.56
2022-11-24T18:13:18.226Z,100056.88
2022-11-24T18:16:33.204Z,100020.53
2022-11-24T18:19:38.694Z,100070.84
2022-11-24T18:26:06.020Z,100074.19
2022-11-24T18:29:12.274Z,100070.84
2022-11-24T18:35:34.889Z,100078.53
2022-11-24T18:38:37.611Z,100076.91
2022-11-24T18:41:40.420Z,100056.03
2022-11-24T18:44:45.429Z,100085.44
2022-11-24T18:47:50.492Z,100081.41
2022-11-24T18:50:54.997Z,100092.31
2022-11-24T18:54:02.180Z,100092.13
2022-11-24T18:57:05.012Z,100094.84
2022-11-24T19:00:08.138Z,100100.63
2022-11-24T19:03:10.579Z,100095.78
2022-11-24T19:06:16.187Z,100095.19
2022-11-24T19:09:22.679Z,100102.84
2022-11-24T19:12:26.708Z,100108.31
2022-11-24T19:15:34.100Z,100040.69
2022-11-24T19:18:36.865Z,100107.81
2022-11-24T19:21:40.761Z,100126.94
2022-11-24T19:24:45.180Z,100130.47
2022-11-24T19:27:47.638Z,100128.34
2022-11-24T19:30:50.286Z,100134.09
2022-11-24T19:33:54.671Z,100129.78
2022-11-24T19:36:57.358Z,100109.75
2022-11-24T19:39:59.839Z,100147.59
2022-11-24T19:43:04.425Z,100157.09
2022-11-24T19:46:12.786Z,100147.59
2022-11-24T19:49:15.723Z,100149.00
2022-11-24T19:52:18.171Z,100129.38
2022-11-24T19:55:25.762Z,100153.94
2022-11-24T19:58:29.944Z,100161.53
2022-11-24T20:01:37.604Z,100171.97
2022-11-24T20:04:44.011Z,100172.28
2022-11-24T20:07:48.960Z,100173.88
2022-11-24T20:10:54.603Z,100173.06
2022-11-24T20:13:57.933Z,100186.72
2022-11-24T20:17:00.863Z,100193.31
2022-11-24T20:20:03.637Z,100203.09
2022-11-24T20:23:06.542Z,100210.69
2022-11-24T20:26:17.269Z,100205.22
2022-11-24T20:29:20.594Z,100207.47
2022-11-24T20:32:22.984Z,100212.44
2022-11-24T20:35:26.001Z,100215.75
2022-11-24T20:38:30.411Z,100165.53
2022-11-24T20:41:35.298Z,100209.09
2022-11-24T20:44:37.792Z,100232.66
2022-11-24T20:47:40.416Z,100243.06
2022-11-24T20:50:45.776Z,100253.19
2022-11-24T20:53:56.053Z,100216.00
2022-11-24T20:56:58.414Z,100230.34
2022-11-24T21:00:01.871Z,100239.84
2022-11-24T21:03:04.202Z,100244.66
2022-11-24T21:06:08.567Z,100232.53
2022-11-24T21:09:10.910Z,100247.72
2022-11-24T21:12:13.978Z,100244.06
2022-11-24T21:15:17.615Z,100244.66
2022-11-24T21:18:22.022Z,100243.06
2022-11-24T21:21:26.138Z,100270.59
2022-11-24T21:24:31.164Z,100260.44
2022-11-24T21:27:33.649Z,100262.09
2022-11-24T21:30:37.556Z,100182.13
2022-11-24T21:33:48.345Z,100260.06
2022-11-24T21:36:50.891Z,100260.66
2022-11-24T21:39:53.286Z,100238.22
2022-11-24T21:43:01.161Z,100261.47
2022-11-24T21:46:08.177Z,100263.13
2022-11-24T21:49:10.868Z,100268.38
2022-11-24T21:52:13.645Z,100263.87
2022-11-24T21:55:16.737Z,100278.84
2022-11-24T21:58:19.024Z,100270.97
2022-11-24T22:01:27.376Z,100248.06
2022-11-24T22:04:30.222Z,100254.94
2022-11-24T22:07:32.823Z,100258.09
2022-11-24T22:10:35.414Z,100265.69
2022-11-24T22:13:38.420Z,100281.03
2022-11-24T22:16:42.342Z,100276.16
2022-11-24T22:19:44.643Z,100292.25
2022-11-24T22:22:47.194Z,100281.22
2022-11-24T22:25:53.585Z,100296.41
2022-11-24T22:28:57.482Z,100292.53
2022-11-24T22:31:59.957Z,100309.44
2022-11-24T22:35:02.542Z,100304.06
2022-11-24T22:38:04.802Z,100285.03
2022-11-24T22:41:18.385Z,100317.84
2022-11-24T22:44:20.699Z,100314.59
2022-11-24T22:47:23.285Z,100324.72
2022-11-24T22:50:25.593Z,100305.19
2022-11-24T22:53:28.310Z,100313.78
2022-11-24T22:56:33.695Z,100326.84
2022-11-24T22:59:36.247Z,100326.34
2022-11-24T23:02:38.500Z,100332.63
2022-11-24T23:05:41.112Z,100324.94
2022-11-24T23:08:43.856Z,100305.47
2022-11-24T23:11:46.445Z,100311.75
2022-11-24T23:14:48.770Z,100315.78
2022-11-24T23:17:51.293Z,100310.44
2022-11-24T23:20:53.616Z,100335.84
2022-11-24T23:23:58.346Z,100319.44
2022-11-24T23:27:03.263Z,100344.31
2022-11-24T23:30:06.521Z,100339.91
2022-11-24T23:33:08.804Z,100358.72
2022-11-24T23:36:12.779Z,100343.22
2022-11-24T23:39:15.279Z,100337.84
2022-11-24T23:42:18.297Z,100358.97
2022-11-24T23:45:20.770Z,100336.22
2022-11-24T23:48:23.459Z,100356.81
2022-11-24T23:51:28.350Z,100322.66
2022-11-24T23:54:30.826Z,100338.66
2022-11-24T23:57:33.229Z,100355.72
